Chase, Michigan
Current Conditions -  °F | °C
As of 5:15 AM on Friday 19 Dec 2014 (Local Time) from KRQB Reporting Station
Overcast Overcast  
Wind Chill: 23°   Ceiling: 1300
Heat Index: 23°   Visibility: 10mi
Dew Point: 20°   Wind: 0mph
Humidity: 89%   Direction: NA
Pressure: 30.22"   Gusts: NA
Location:  43.89°N, 85.64°W
Report Text: KRQB 191015Z AUTO 00000KT 10SM OVC013 M05/M07 A3022 RMK AO2 T10501066
Loading
Personal Weather Stations






























Interactive Weather Map New forecast layout! Learn more

10-Day Weather Forecast

Advertisements
Track Severe Weather on mobile